createdAt,value
2018-11-25T00:01:22.717Z,3.70
2018-11-25T00:03:26.887Z,3.70
2018-11-25T00:05:31.134Z,3.70
2018-11-25T00:07:35.300Z,3.70
2018-11-25T00:09:39.509Z,3.70
2018-11-25T00:11:43.701Z,3.70
2018-11-25T00:13:47.872Z,3.70
2018-11-25T00:15:52.040Z,3.70
2018-11-25T00:17:56.227Z,3.70
2018-11-25T00:20:00.602Z,3.70
2018-11-25T00:22:04.878Z,3.70
2018-11-25T00:24:09.067Z,3.70
2018-11-25T00:26:13.314Z,3.70
2018-11-25T00:28:23.922Z,3.70
2018-11-25T00:30:28.072Z,3.70
2018-11-25T00:32:32.250Z,3.70
2018-11-25T00:34:36.488Z,3.70
2018-11-25T00:36:40.693Z,3.70
2018-11-25T00:38:44.882Z,3.70
2018-11-25T00:40:49.154Z,3.70
2018-11-25T00:42:53.407Z,3.70
2018-11-25T00:44:57.572Z,3.70
2018-11-25T00:47:01.787Z,3.70
2018-11-25T00:49:06.419Z,3.60
2018-11-25T00:51:10.581Z,3.70
2018-11-25T00:53:14.733Z,3.60
2018-11-25T00:55:19.141Z,3.60
2018-11-25T00:57:23.321Z,3.60
2018-11-25T00:59:27.610Z,3.70
2018-11-25T01:01:31.932Z,3.70
2018-11-25T01:03:36.095Z,3.70
2018-11-25T01:05:40.412Z,3.70
2018-11-25T01:07:44.697Z,3.70
2018-11-25T01:09:48.888Z,3.80
2018-11-25T01:11:53.167Z,3.70
2018-11-25T01:13:57.393Z,3.80
2018-11-25T01:16:01.716Z,3.80
2018-11-25T01:18:05.956Z,3.80
2018-11-25T01:20:14.227Z,3.80
2018-11-25T01:22:18.546Z,3.80
2018-11-25T01:24:22.728Z,3.70
2018-11-25T01:26:27.028Z,3.80
2018-11-25T01:28:31.195Z,3.80
2018-11-25T01:30:35.334Z,3.80
2018-11-25T01:32:39.543Z,3.80
2018-11-25T01:34:43.695Z,3.70
2018-11-25T01:36:47.879Z,3.70
2018-11-25T01:38:52.150Z,3.80
2018-11-25T01:40:56.440Z,3.80
2018-11-25T01:43:00.661Z,3.80
2018-11-25T01:45:05.015Z,3.90
2018-11-25T01:47:09.243Z,3.90
2018-11-25T01:49:13.455Z,3.90
2018-11-25T01:51:17.609Z,3.90
2018-11-25T01:53:21.925Z,3.90
2018-11-25T01:55:26.166Z,3.90
2018-11-25T01:57:30.420Z,3.90
2018-11-25T01:59:34.660Z,3.90
2018-11-25T02:01:38.861Z,3.90
2018-11-25T02:03:43.074Z,4.00
2018-11-25T02:05:47.492Z,3.90
2018-11-25T02:09:56.395Z,3.90
2018-11-25T02:12:00.552Z,3.90
2018-11-25T02:14:04.784Z,3.90
2018-11-25T02:16:09.000Z,3.90
2018-11-25T02:18:13.177Z,4.00
2018-11-25T02:20:20.682Z,3.90
2018-11-25T02:22:24.885Z,3.90
2018-11-25T02:24:29.059Z,3.90
2018-11-25T02:26:33.306Z,4.00
2018-11-25T02:28:37.451Z,4.00
2018-11-25T02:30:41.627Z,4.00
2018-11-25T02:32:46.078Z,4.00
2018-11-25T02:34:50.212Z,4.10
2018-11-25T02:36:54.401Z,4.20
2018-11-25T02:38:58.711Z,4.20
2018-11-25T02:41:03.023Z,4.10
2018-11-25T02:43:07.235Z,4.00
2018-11-25T02:45:20.740Z,4.10
2018-11-25T02:47:25.767Z,4.00
2018-11-25T02:49:30.016Z,4.00
2018-11-25T02:51:34.214Z,4.00
2018-11-25T02:53:38.459Z,3.90
2018-11-25T02:55:42.756Z,3.90
2018-11-25T02:57:46.964Z,3.90
2018-11-25T02:59:51.327Z,3.90
2018-11-25T03:01:55.706Z,4.00
2018-11-25T03:03:59.876Z,4.00
2018-11-25T03:06:04.152Z,4.00
2018-11-25T03:08:08.387Z,4.00
2018-11-25T03:10:12.807Z,4.00
2018-11-25T03:12:16.995Z,3.90
2018-11-25T03:14:21.303Z,3.90
2018-11-25T03:16:25.498Z,3.90
2018-11-25T03:18:29.646Z,3.90
2018-11-25T03:20:33.768Z,3.90
2018-11-25T03:22:38.065Z,4.00
2018-11-25T03:24:42.271Z,4.00
2018-11-25T03:26:46.432Z,4.00
2018-11-25T03:28:50.584Z,3.90
2018-11-25T03:30:54.925Z,3.90
2018-11-25T03:32:59.076Z,3.90
2018-11-25T03:35:03.254Z,3.90
2018-11-25T03:37:07.566Z,3.90
2018-11-25T03:39:12.297Z,3.80
2018-11-25T03:41:17.145Z,3.80
2018-11-25T03:43:21.371Z,3.90
2018-11-25T03:45:25.557Z,3.90
2018-11-25T03:47:30.096Z,4.00
2018-11-25T03:49:34.505Z,4.00
2018-11-25T03:51:39.080Z,4.00
2018-11-25T03:53:43.759Z,4.10
2018-11-25T03:55:48.534Z,4.10
2018-11-25T03:57:53.313Z,4.00
2018-11-25T03:59:57.832Z,3.90
2018-11-25T04:02:02.702Z,4.00
2018-11-25T04:04:07.861Z,4.00
2018-11-25T04:06:12.094Z,4.00
2018-11-25T04:08:16.402Z,4.00
2018-11-25T04:10:20.911Z,4.00
2018-11-25T04:12:25.114Z,4.00
2018-11-25T04:14:29.405Z,3.90
2018-11-25T04:16:33.547Z,4.00
2018-11-25T04:18:37.844Z,4.00
2018-11-25T04:20:42.188Z,3.90
2018-11-25T04:22:46.473Z,4.00
2018-11-25T04:24:50.867Z,4.10
2018-11-25T04:26:55.084Z,4.00
2018-11-25T04:28:59.398Z,4.00
2018-11-25T04:31:03.722Z,4.10
2018-11-25T04:33:07.935Z,4.10
2018-11-25T04:35:13.013Z,4.10
2018-11-25T04:37:17.273Z,4.20
2018-11-25T04:39:21.465Z,4.10
2018-11-25T04:41:25.671Z,4.20
2018-11-25T04:43:29.936Z,4.00
2018-11-25T04:45:34.261Z,4.00
2018-11-25T04:47:38.591Z,4.20
2018-11-25T04:49:42.822Z,4.00
2018-11-25T04:51:46.963Z,3.90
2018-11-25T04:53:51.203Z,4.00
2018-11-25T04:55:55.663Z,4.00
2018-11-25T04:57:59.903Z,3.90
2018-11-25T05:00:04.266Z,3.80
2018-11-25T05:02:08.448Z,3.80
2018-11-25T05:04:12.950Z,3.80
2018-11-25T05:06:17.123Z,3.80
2018-11-25T05:08:21.399Z,3.80
2018-11-25T05:10:25.837Z,3.80
2018-11-25T05:12:30.187Z,3.90
2018-11-25T05:14:34.492Z,3.80
2018-11-25T05:16:38.758Z,3.80
2018-11-25T05:18:42.946Z,3.90
2018-11-25T05:20:47.248Z,4.00
2018-11-25T05:22:51.507Z,3.90
2018-11-25T05:24:55.715Z,4.00
2018-11-25T05:26:59.928Z,3.90
2018-11-25T05:29:04.139Z,3.90
2018-11-25T05:31:08.355Z,3.80
2018-11-25T05:33:12.992Z,3.80
2018-11-25T05:35:20.247Z,3.70
2018-11-25T05:37:24.427Z,3.70
2018-11-25T05:39:28.676Z,3.70
2018-11-25T05:41:33.071Z,3.70
2018-11-25T05:43:37.493Z,3.70
2018-11-25T05:45:42.601Z,3.70
2018-11-25T05:47:49.353Z,3.70
2018-11-25T05:49:53.990Z,3.70
2018-11-25T05:51:59.227Z,3.70
2018-11-25T05:54:04.756Z,3.70
2018-11-25T05:56:09.454Z,3.70
2018-11-25T05:58:15.238Z,3.70
2018-11-25T06:00:23.809Z,3.70
2018-11-25T06:02:28.705Z,3.70
2018-11-25T06:04:33.104Z,3.70
2018-11-25T06:06:37.668Z,3.70
2018-11-25T06:08:42.295Z,3.70
2018-11-25T06:10:47.855Z,3.70
2018-11-25T06:12:52.180Z,3.70
2018-11-25T06:14:56.716Z,3.70
2018-11-25T06:17:01.935Z,3.70
2018-11-25T06:19:06.762Z,3.70
2018-11-25T06:21:11.598Z,3.70
2018-11-25T06:23:16.982Z,3.70
2018-11-25T06:25:23.268Z,3.70
2018-11-25T06:27:28.596Z,3.80
2018-11-25T06:29:33.797Z,3.80
2018-11-25T06:31:38.559Z,3.80
2018-11-25T06:33:52.822Z,3.90
2018-11-25T06:35:59.032Z,3.80
2018-11-25T06:38:04.794Z,3.80
2018-11-25T06:40:17.923Z,3.80
2018-11-25T06:42:24.526Z,3.80
2018-11-25T06:44:29.643Z,3.80
2018-11-25T06:46:34.742Z,3.80
2018-11-25T06:48:39.640Z,3.80
2018-11-25T06:50:45.828Z,3.80
2018-11-25T06:52:51.284Z,3.80
2018-11-25T06:54:55.475Z,3.80
2018-11-25T06:57:03.911Z,3.80
2018-11-25T06:59:08.651Z,3.90
2018-11-25T07:01:12.979Z,3.90
2018-11-25T07:03:17.132Z,3.90
2018-11-25T07:05:21.766Z,3.80
2018-11-25T07:07:26.753Z,3.90
2018-11-25T07:09:32.735Z,3.80
2018-11-25T07:11:37.360Z,3.90
2018-11-25T07:13:42.375Z,3.80
2018-11-25T07:15:47.201Z,3.90
2018-11-25T07:17:51.383Z,3.90
2018-11-25T07:19:55.532Z,3.90
2018-11-25T07:22:00.477Z,3.80
2018-11-25T07:24:05.203Z,3.90
2018-11-25T07:26:10.349Z,3.90
2018-11-25T07:28:18.456Z,3.90
2018-11-25T07:30:24.576Z,4.00
2018-11-25T07:32:29.973Z,3.90
2018-11-25T07:34:34.253Z,3.90
2018-11-25T07:36:39.054Z,4.00
2018-11-25T07:38:43.327Z,4.00
2018-11-25T07:40:48.199Z,4.00
2018-11-25T07:42:52.763Z,4.00
2018-11-25T07:44:57.063Z,4.10
2018-11-25T07:47:01.333Z,4.00
2018-11-25T07:49:06.319Z,4.10
2018-11-25T07:51:10.518Z,4.10
2018-11-25T07:53:15.159Z,4.10
2018-11-25T07:55:23.504Z,4.10
2018-11-25T07:57:27.703Z,4.10
2018-11-25T07:59:32.034Z,4.10
2018-11-25T08:01:36.276Z,4.20
2018-11-25T08:03:40.526Z,4.10
2018-11-25T08:05:45.272Z,4.10
2018-11-25T08:07:49.626Z,4.10
2018-11-25T08:09:54.010Z,4.00
2018-11-25T08:11:58.325Z,4.00
2018-11-25T08:14:02.671Z,4.10
2018-11-25T08:16:07.067Z,4.10
2018-11-25T08:18:11.279Z,4.10
2018-11-25T08:20:26.084Z,4.10
2018-11-25T08:22:30.916Z,4.10
2018-11-25T08:24:35.557Z,4.20
2018-11-25T08:26:39.985Z,4.20
2018-11-25T08:28:44.851Z,4.20
2018-11-25T08:30:49.067Z,4.20
2018-11-25T08:32:54.318Z,4.20
2018-11-25T08:34:59.219Z,4.30
2018-11-25T08:37:03.660Z,4.30
2018-11-25T08:39:09.801Z,4.20
2018-11-25T08:41:14.009Z,4.30
2018-11-25T08:43:18.165Z,4.20
2018-11-25T08:45:22.516Z,4.30
2018-11-25T08:47:27.642Z,4.30
2018-11-25T08:49:32.523Z,4.30
2018-11-25T08:51:37.795Z,4.40
2018-11-25T08:53:42.847Z,4.50
2018-11-25T08:55:48.076Z,4.50
2018-11-25T08:57:53.544Z,4.40
2018-11-25T08:59:59.065Z,4.40
2018-11-25T09:02:04.507Z,4.40
2018-11-25T09:04:09.521Z,4.60
2018-11-25T09:06:13.818Z,4.60
2018-11-25T09:08:18.450Z,4.50
2018-11-25T09:10:23.724Z,4.50
2018-11-25T09:12:28.640Z,4.40
2018-11-25T09:14:33.715Z,4.40
2018-11-25T09:16:38.664Z,4.40
2018-11-25T09:18:43.376Z,4.50
2018-11-25T09:20:47.914Z,4.60
2018-11-25T09:22:53.515Z,4.50
2018-11-25T09:24:58.091Z,4.50
2018-11-25T09:27:03.456Z,4.60
2018-11-25T09:29:07.935Z,4.60
2018-11-25T09:31:12.749Z,4.50
2018-11-25T09:33:18.260Z,4.50
2018-11-25T09:35:22.983Z,4.50
2018-11-25T09:37:27.684Z,4.60
2018-11-25T09:39:32.357Z,4.60
2018-11-25T09:41:37.264Z,4.60
2018-11-25T09:43:42.619Z,4.70
2018-11-25T09:45:47.247Z,4.70
2018-11-25T09:47:52.595Z,4.70
2018-11-25T09:49:57.400Z,4.70
2018-11-25T09:52:01.816Z,4.60
2018-11-25T09:54:06.335Z,4.60
2018-11-25T09:56:11.367Z,4.70
2018-11-25T09:58:17.073Z,4.70
2018-11-25T10:00:22.789Z,4.80
2018-11-25T10:02:27.415Z,4.90
2018-11-25T10:04:32.368Z,4.90
2018-11-25T10:06:37.152Z,4.90
2018-11-25T10:08:41.952Z,4.80
2018-11-25T10:10:52.612Z,4.90
2018-11-25T10:12:51.893Z,4.90
2018-11-25T10:14:56.142Z,4.90
2018-11-25T10:17:00.337Z,4.90
2018-11-25T10:19:05.008Z,4.90
2018-11-25T10:21:09.842Z,4.90
2018-11-25T10:23:14.779Z,5.00
2018-11-25T10:25:19.739Z,4.90
2018-11-25T10:27:26.387Z,4.90
2018-11-25T10:29:31.279Z,4.80
2018-11-25T10:31:36.197Z,4.90
2018-11-25T10:33:40.850Z,4.80
2018-11-25T10:35:45.853Z,4.80
2018-11-25T10:37:50.499Z,4.80
2018-11-25T10:39:54.787Z,4.80
2018-11-25T10:42:01.553Z,4.90
2018-11-25T10:44:06.388Z,4.80
2018-11-25T10:46:10.793Z,4.80
2018-11-25T10:48:15.345Z,4.80
2018-11-25T10:50:21.028Z,4.80
2018-11-25T10:52:26.226Z,4.80
2018-11-25T10:54:31.284Z,4.90
2018-11-25T10:56:35.500Z,5.00
2018-11-25T10:58:40.801Z,5.00
2018-11-25T11:00:51.152Z,5.00
2018-11-25T11:03:59.152Z,4.90
2018-11-25T11:06:08.615Z,4.90
2018-11-25T11:08:12.981Z,5.00
2018-11-25T11:10:17.165Z,5.00
2018-11-25T11:12:21.401Z,5.00
2018-11-25T11:14:26.094Z,4.90
2018-11-25T11:16:30.297Z,5.00
2018-11-25T11:18:34.472Z,4.90
2018-11-25T11:20:38.708Z,4.90
2018-11-25T11:22:42.905Z,4.90
2018-11-25T11:24:47.145Z,4.90
2018-11-25T11:26:51.462Z,4.90
2018-11-25T11:28:55.724Z,4.90
2018-11-25T11:31:00.023Z,4.90
2018-11-25T11:33:04.248Z,4.90
2018-11-25T11:35:08.917Z,5.00
2018-11-25T11:37:13.141Z,4.90
2018-11-25T11:39:17.341Z,4.90
2018-11-25T11:41:21.566Z,4.90
2018-11-25T11:43:25.742Z,4.90
2018-11-25T11:45:29.956Z,4.90
2018-11-25T11:47:34.165Z,4.90
2018-11-25T11:49:38.369Z,4.90
2018-11-25T11:51:42.606Z,4.90
2018-11-25T11:53:46.951Z,4.90
2018-11-25T11:55:51.196Z,4.90
2018-11-25T11:57:55.378Z,4.90
2018-11-25T11:59:59.567Z,5.00
2018-11-25T12:02:03.917Z,5.10
2018-11-25T12:04:08.184Z,5.10
2018-11-25T12:06:12.425Z,5.10
2018-11-25T12:08:16.691Z,5.10
2018-11-25T12:10:21.048Z,5.10
2018-11-25T12:12:25.224Z,5.10
2018-11-25T12:14:29.439Z,5.10
2018-11-25T12:16:33.662Z,5.10
2018-11-25T12:18:37.918Z,5.20
2018-11-25T12:20:42.109Z,5.20
2018-11-25T12:22:46.744Z,5.20
2018-11-25T12:24:50.916Z,5.30
2018-11-25T12:26:55.113Z,5.30
2018-11-25T12:28:59.342Z,5.30
2018-11-25T12:31:03.613Z,5.20
2018-11-25T12:33:07.855Z,5.20
2018-11-25T12:35:13.167Z,5.30
2018-11-25T12:37:17.360Z,5.30
2018-11-25T12:39:21.906Z,5.40
2018-11-25T12:41:25.876Z,5.40
2018-11-25T12:43:32.248Z,5.40
2018-11-25T12:45:38.145Z,5.40
2018-11-25T12:47:43.078Z,5.40
2018-11-25T12:49:47.343Z,5.50
2018-11-25T12:51:51.584Z,5.50
2018-11-25T12:53:55.871Z,5.50
2018-11-25T12:56:00.047Z,5.50
2018-11-25T12:58:04.337Z,5.50
2018-11-25T13:00:17.128Z,5.50
2018-11-25T13:02:21.894Z,5.50
2018-11-25T13:04:27.795Z,5.50
2018-11-25T13:06:32.134Z,5.50
2018-11-25T13:08:37.945Z,5.50
2018-11-25T13:10:42.789Z,5.40
2018-11-25T13:12:47.418Z,5.50
2018-11-25T13:14:52.527Z,5.50
2018-11-25T13:16:57.504Z,5.50
2018-11-25T13:19:01.705Z,5.50
2018-11-25T13:21:06.683Z,5.50
2018-11-25T13:23:10.867Z,5.50
2018-11-25T13:25:16.157Z,5.50
2018-11-25T13:27:20.888Z,5.50
2018-11-25T13:29:25.702Z,5.50
2018-11-25T13:31:30.568Z,5.40
2018-11-25T13:33:35.116Z,5.40
2018-11-25T13:35:41.814Z,5.50
2018-11-25T13:37:46.566Z,5.40
2018-11-25T13:39:51.389Z,5.40
2018-11-25T13:41:56.130Z,5.40
2018-11-25T13:44:00.903Z,5.50
2018-11-25T13:46:05.788Z,5.40
2018-11-25T13:48:09.989Z,5.40
2018-11-25T13:50:14.258Z,5.50
2018-11-25T13:52:18.495Z,5.50
2018-11-25T13:54:22.721Z,5.50
2018-11-25T13:56:27.489Z,5.50
2018-11-25T13:58:31.670Z,5.50
2018-11-25T14:00:43.211Z,5.50
2018-11-25T14:02:47.491Z,5.60
2018-11-25T14:04:51.722Z,5.60
2018-11-25T14:06:55.896Z,5.50
2018-11-25T14:09:00.211Z,5.50
2018-11-25T14:11:07.036Z,5.50
2018-11-25T14:13:11.243Z,5.50
2018-11-25T14:15:15.459Z,5.50
2018-11-25T14:17:19.738Z,5.50
2018-11-25T14:19:24.048Z,5.60
2018-11-25T14:21:28.223Z,5.50
2018-11-25T14:23:32.454Z,5.50
2018-11-25T14:25:36.636Z,5.50
2018-11-25T14:27:40.833Z,5.40
2018-11-25T14:29:45.112Z,5.50
2018-11-25T14:31:49.372Z,5.50
2018-11-25T14:33:53.608Z,5.40
2018-11-25T14:35:57.899Z,5.50
2018-11-25T14:38:02.296Z,5.50
2018-11-25T14:40:11.424Z,5.60
2018-11-25T14:42:15.595Z,5.50
2018-11-25T14:44:19.896Z,5.50
2018-11-25T14:46:24.065Z,5.50
2018-11-25T14:48:28.295Z,5.50
2018-11-25T14:50:32.523Z,5.40
2018-11-25T14:52:36.752Z,5.50
2018-11-25T14:54:40.993Z,5.50
2018-11-25T14:56:45.276Z,5.40
2018-11-25T14:58:49.432Z,5.40
2018-11-25T15:00:53.622Z,5.40
2018-11-25T15:03:00.625Z,5.40
2018-11-25T15:05:05.090Z,5.30
2018-11-25T15:07:09.303Z,5.30
2018-11-25T15:09:13.419Z,5.40
2018-11-25T15:11:17.639Z,5.40
2018-11-25T15:13:22.006Z,5.30
2018-11-25T15:15:26.289Z,5.30
2018-11-25T15:17:30.508Z,5.30
2018-11-25T15:19:34.717Z,5.30
2018-11-25T15:21:38.972Z,5.30
2018-11-25T15:23:43.528Z,5.30
2018-11-25T15:25:52.550Z,5.30
2018-11-25T15:27:58.091Z,5.30
2018-11-25T15:30:01.076Z,5.30
2018-11-25T15:32:05.479Z,5.30
2018-11-25T15:34:09.704Z,5.40
2018-11-25T15:36:13.850Z,5.30
2018-11-25T15:38:18.075Z,5.40
2018-11-25T15:40:27.526Z,5.40
2018-11-25T15:42:31.847Z,5.30
2018-11-25T15:44:36.040Z,5.30
2018-11-25T15:46:40.279Z,5.30
2018-11-25T15:48:44.538Z,5.30
2018-11-25T15:50:48.831Z,5.40
2018-11-25T15:52:53.028Z,5.40
2018-11-25T15:54:57.253Z,5.50
2018-11-25T15:57:01.382Z,5.50
2018-11-25T15:59:05.680Z,5.40
2018-11-25T16:01:09.816Z,5.40
2018-11-25T16:03:14.926Z,5.40
2018-11-25T16:05:20.902Z,5.40
2018-11-25T16:07:25.115Z,5.40
2018-11-25T16:09:29.343Z,5.40
2018-11-25T16:11:33.590Z,5.40
2018-11-25T16:13:37.823Z,5.40
2018-11-25T16:15:42.043Z,5.40
2018-11-25T16:17:46.284Z,5.40
2018-11-25T16:19:50.487Z,5.40
2018-11-25T16:21:54.750Z,5.40
2018-11-25T16:23:59.007Z,5.50
2018-11-25T16:26:07.160Z,5.50
2018-11-25T16:28:22.537Z,5.50
2018-11-25T16:30:26.865Z,5.40
2018-11-25T16:32:31.090Z,5.40
2018-11-25T16:34:35.294Z,5.50
2018-11-25T16:36:39.551Z,5.50
2018-11-25T16:38:43.686Z,5.50
2018-11-25T16:40:47.830Z,5.40
2018-11-25T16:42:52.179Z,5.40
2018-11-25T16:44:56.456Z,5.40
2018-11-25T16:47:00.729Z,5.40
2018-11-25T16:49:05.208Z,5.50
2018-11-25T16:51:09.398Z,5.40
2018-11-25T16:53:13.615Z,5.40
2018-11-25T16:55:17.864Z,5.50
2018-11-25T16:57:22.030Z,5.50
2018-11-25T16:59:26.260Z,5.50
2018-11-25T17:01:30.467Z,5.50
2018-11-25T17:03:34.661Z,5.50
2018-11-25T17:05:40.922Z,5.50
2018-11-25T17:07:45.905Z,5.50
2018-11-25T17:09:50.112Z,5.50
2018-11-25T17:11:54.324Z,5.50
2018-11-25T17:13:58.532Z,5.40
2018-11-25T17:16:02.748Z,5.40
2018-11-25T17:18:07.009Z,5.50
2018-11-25T17:20:11.291Z,5.50
2018-11-25T17:22:16.687Z,5.60
2018-11-25T17:24:19.874Z,5.50
2018-11-25T17:26:24.072Z,5.50
2018-11-25T17:28:28.305Z,5.50
2018-11-25T17:30:32.582Z,5.50
2018-11-25T17:32:36.890Z,5.50
2018-11-25T17:34:41.051Z,5.50
2018-11-25T17:36:45.303Z,5.50
2018-11-25T17:38:49.509Z,5.60
2018-11-25T17:40:53.787Z,5.60
2018-11-25T17:42:58.123Z,5.60
2018-11-25T17:45:02.312Z,5.60
2018-11-25T17:47:06.644Z,5.60
2018-11-25T17:49:10.873Z,5.60
2018-11-25T17:51:15.072Z,5.60
2018-11-25T17:53:20.912Z,5.70
2018-11-25T17:55:25.126Z,5.60
2018-11-25T17:57:29.299Z,5.60
2018-11-25T17:59:33.484Z,5.60
2018-11-25T18:01:37.636Z,5.60
2018-11-25T18:03:41.903Z,5.60
2018-11-25T18:05:46.237Z,5.60
2018-11-25T18:07:50.395Z,5.50
2018-11-25T18:09:54.608Z,5.50
2018-11-25T18:11:59.041Z,5.50
2018-11-25T18:14:03.331Z,5.60
2018-11-25T18:16:09.392Z,5.50
2018-11-25T18:18:24.240Z,5.50
2018-11-25T18:20:31.504Z,5.50
2018-11-25T18:22:35.866Z,5.60
2018-11-25T18:24:40.099Z,5.50
2018-11-25T18:26:44.372Z,5.60
2018-11-25T18:28:48.574Z,5.60
2018-11-25T18:30:52.924Z,5.70
2018-11-25T18:32:57.204Z,5.70
2018-11-25T18:35:01.403Z,5.60
2018-11-25T18:37:05.672Z,5.60
2018-11-25T18:39:11.629Z,5.60
2018-11-25T18:41:15.883Z,5.60
2018-11-25T18:43:20.091Z,5.60
2018-11-25T18:45:24.253Z,5.60
2018-11-25T18:47:28.570Z,5.60
2018-11-25T18:49:32.891Z,5.60
2018-11-25T18:51:37.275Z,5.60
2018-11-25T18:53:41.473Z,5.60
2018-11-25T18:55:44.177Z,5.50
2018-11-25T18:57:48.399Z,5.50
2018-11-25T18:59:52.639Z,5.50
2018-11-25T19:02:00.183Z,5.50
2018-11-25T19:04:05.768Z,5.50
2018-11-25T19:06:09.981Z,5.50
2018-11-25T19:08:14.164Z,5.50
2018-11-25T19:10:19.214Z,5.50
2018-11-25T19:12:23.440Z,5.60
2018-11-25T19:14:27.814Z,5.60
2018-11-25T19:16:32.070Z,5.50
2018-11-25T19:18:36.209Z,5.50
2018-11-25T19:20:40.425Z,5.50
2018-11-25T19:22:44.570Z,5.50
2018-11-25T19:24:48.732Z,5.50
2018-11-25T19:26:52.955Z,5.50
2018-11-25T19:28:57.176Z,5.50
2018-11-25T19:31:01.421Z,5.50
2018-11-25T19:33:05.982Z,5.50
2018-11-25T19:35:12.594Z,5.50
2018-11-25T19:37:16.754Z,5.50
2018-11-25T19:39:20.864Z,5.50
2018-11-25T19:41:25.155Z,5.50
2018-11-25T19:43:29.382Z,5.50
2018-11-25T19:45:33.546Z,5.50
2018-11-25T19:47:37.825Z,5.50
2018-11-25T19:49:42.021Z,5.50
2018-11-25T19:51:46.143Z,5.50
2018-11-25T19:53:50.451Z,5.50
2018-11-25T19:55:54.786Z,5.50
2018-11-25T19:57:59.094Z,5.50
2018-11-25T20:00:03.352Z,5.50
2018-11-25T20:02:07.611Z,5.50
2018-11-25T20:04:11.855Z,5.50
2018-11-25T20:06:15.990Z,5.50
2018-11-25T20:08:20.216Z,5.50
2018-11-25T20:10:25.534Z,5.50
2018-11-25T20:12:34.807Z,5.50
2018-11-25T20:14:39.047Z,5.50
2018-11-25T20:16:48.337Z,5.50
2018-11-25T20:18:52.565Z,5.50
2018-11-25T20:21:01.882Z,5.50
2018-11-25T20:23:06.991Z,5.50
2018-11-25T20:25:12.154Z,5.50
2018-11-25T20:27:21.505Z,5.50
2018-11-25T20:29:25.715Z,5.50
2018-11-25T20:31:29.966Z,5.50
2018-11-25T20:33:39.338Z,5.50
2018-11-25T20:35:44.582Z,5.50
2018-11-25T20:37:52.919Z,5.60
2018-11-25T20:39:57.110Z,5.50
2018-11-25T20:42:01.328Z,5.50
2018-11-25T20:44:05.625Z,5.50
2018-11-25T20:46:15.096Z,5.50
2018-11-25T20:48:19.362Z,5.50
2018-11-25T20:50:23.668Z,5.50
2018-11-25T20:52:33.039Z,5.50
2018-11-25T20:54:37.315Z,5.50
2018-11-25T20:56:41.573Z,5.50
2018-11-25T20:58:45.892Z,5.50
2018-11-25T21:00:50.110Z,5.50
2018-11-25T21:02:54.288Z,5.50
2018-11-25T21:04:58.421Z,5.50
2018-11-25T21:07:13.609Z,5.40
2018-11-25T21:09:18.019Z,5.50
2018-11-25T21:11:22.266Z,5.50
2018-11-25T21:13:26.939Z,5.50
2018-11-25T21:15:31.152Z,5.40
2018-11-25T21:17:35.360Z,5.40
2018-11-25T21:19:39.586Z,5.40
2018-11-25T21:21:45.038Z,5.50
2018-11-25T21:23:49.365Z,5.40
2018-11-25T21:25:53.795Z,5.40
2018-11-25T21:27:58.455Z,5.40
2018-11-25T21:30:03.035Z,5.40
2018-11-25T21:32:07.328Z,5.40
2018-11-25T21:34:11.529Z,5.40
2018-11-25T21:36:15.807Z,5.40
2018-11-25T21:38:20.100Z,5.50
2018-11-25T21:40:27.425Z,5.50
2018-11-25T21:42:31.588Z,5.40
2018-11-25T21:44:35.838Z,5.40
2018-11-25T21:46:40.027Z,5.50
2018-11-25T21:48:44.269Z,5.40
2018-11-25T21:50:48.508Z,5.50
2018-11-25T21:52:52.776Z,5.40
2018-11-25T21:54:56.954Z,5.40
2018-11-25T21:57:01.155Z,5.40
2018-11-25T21:59:05.463Z,5.40
2018-11-25T22:01:09.693Z,5.40
2018-11-25T22:03:14.629Z,5.40
2018-11-25T22:05:20.121Z,5.40
2018-11-25T22:07:24.260Z,5.40
2018-11-25T22:09:28.775Z,5.40
2018-11-25T22:11:33.346Z,5.40
2018-11-25T22:13:37.535Z,5.40
2018-11-25T22:15:42.235Z,5.40
2018-11-25T22:17:46.588Z,5.40
2018-11-25T22:19:50.812Z,5.40
2018-11-25T22:21:56.018Z,5.40
2018-11-25T22:24:00.636Z,5.30
2018-11-25T22:26:05.210Z,5.40
2018-11-25T22:28:09.557Z,5.40
2018-11-25T22:30:16.416Z,5.40
2018-11-25T22:32:20.621Z,5.30
2018-11-25T22:34:24.923Z,5.30
2018-11-25T22:36:29.134Z,5.30
2018-11-25T22:38:33.356Z,5.30
2018-11-25T22:40:37.559Z,5.30
2018-11-25T22:42:42.538Z,5.30
2018-11-25T22:44:46.683Z,5.30
2018-11-25T22:46:50.908Z,5.30
2018-11-25T22:48:55.211Z,5.30
2018-11-25T22:50:59.357Z,5.30
2018-11-25T22:53:03.596Z,5.30
2018-11-25T22:55:10.499Z,5.30
2018-11-25T22:57:14.656Z,5.30
2018-11-25T22:59:18.832Z,5.20
2018-11-25T23:01:23.234Z,5.20
2018-11-25T23:03:27.389Z,5.20
2018-11-25T23:05:42.439Z,5.20
2018-11-25T23:07:46.719Z,5.30
2018-11-25T23:09:50.973Z,5.30
2018-11-25T23:11:55.135Z,5.30
2018-11-25T23:13:59.359Z,5.30
2018-11-25T23:16:03.632Z,5.20
2018-11-25T23:18:07.887Z,5.20
2018-11-25T23:20:12.046Z,5.20
2018-11-25T23:22:16.217Z,5.20
2018-11-25T23:24:20.400Z,5.20
2018-11-25T23:26:24.527Z,5.20
2018-11-25T23:28:28.757Z,5.20
2018-11-25T23:30:32.980Z,5.20
2018-11-25T23:32:37.254Z,5.20
2018-11-25T23:34:41.515Z,5.20
2018-11-25T23:36:45.739Z,5.20
2018-11-25T23:38:50.021Z,5.20
2018-11-25T23:40:54.252Z,5.20
2018-11-25T23:42:58.500Z,5.20
2018-11-25T23:45:02.689Z,5.20
2018-11-25T23:47:06.956Z,5.20
2018-11-25T23:49:11.135Z,5.20
2018-11-25T23:51:15.288Z,5.20
2018-11-25T23:53:19.538Z,5.10
2018-11-25T23:55:23.768Z,5.20
2018-11-25T23:57:27.950Z,5.10
2018-11-25T23:59:32.223Z,5.10
